sensor_id;sensor_type;location;lat;lon;timestamp;temperature;humidity
64634;DHT22;51043;52.406;9.690;2023-06-10T00:00:49;16.50;99.90
64634;DHT22;51043;52.406;9.690;2023-06-10T00:03:19;16.40;99.90
64634;DHT22;51043;52.406;9.690;2023-06-10T00:05:48;16.30;99.90
64634;DHT22;51043;52.406;9.690;2023-06-10T00:08:16;16.30;99.90
64634;DHT22;51043;52.406;9.690;2023-06-10T00:10:46;16.30;99.90
64634;DHT22;51043;52.406;9.690;2023-06-10T00:13:17;16.30;99.90
64634;DHT22;51043;52.406;9.690;2023-06-10T00:15:45;16.30;99.90
64634;DHT22;51043;52.406;9.690;2023-06-10T00:18:13;16.30;99.90
64634;DHT22;51043;52.406;9.690;2023-06-10T00:20:43;16.30;99.90
64634;DHT22;51043;52.406;9.690;2023-06-10T00:23:12;16.40;99.90
64634;DHT22;51043;52.406;9.690;2023-06-10T00:25:41;16.30;99.90
64634;DHT22;51043;52.406;9.690;2023-06-10T00:28:09;16.30;99.90
64634;DHT22;51043;52.406;9.690;2023-06-10T00:30:37;16.20;99.90
64634;DHT22;51043;52.406;9.690;2023-06-10T00:33:05;16.20;99.90
64634;DHT22;51043;52.406;9.690;2023-06-10T00:35:34;16.20;99.90
64634;DHT22;51043;52.406;9.690;2023-06-10T00:38:02;16.10;99.90
64634;DHT22;51043;52.406;9.690;2023-06-10T00:40:33;16.10;99.90
64634;DHT22;51043;52.406;9.690;2023-06-10T00:43:07;16.10;99.90
64634;DHT22;51043;52.406;9.690;2023-06-10T00:45:35;16.00;99.90
64634;DHT22;51043;52.406;9.690;2023-06-10T00:48:04;15.90;99.90
64634;DHT22;51043;52.406;9.690;2023-06-10T00:50:32;15.80;99.90
64634;DHT22;51043;52.406;9.690;2023-06-10T00:53:01;15.80;99.90
64634;DHT22;51043;52.406;9.690;2023-06-10T00:55:32;15.70;99.90
64634;DHT22;51043;52.406;9.690;2023-06-10T00:58:01;15.60;99.90
64634;DHT22;51043;52.406;9.690;2023-06-10T01:00:31;15.60;99.90
64634;DHT22;51043;52.406;9.690;2023-06-10T01:03:02;15.50;99.90
64634;DHT22;51043;52.406;9.690;2023-06-10T01:05:35;15.30;99.90
64634;DHT22;51043;52.406;9.690;2023-06-10T01:08:09;15.20;99.90
64634;DHT22;51043;52.406;9.690;2023-06-10T01:10:43;15.10;99.90
64634;DHT22;51043;52.406;9.690;2023-06-10T01:13:13;15.00;99.90
64634;DHT22;51043;52.406;9.690;2023-06-10T01:15:43;14.90;99.90
64634;DHT22;51043;52.406;9.690;2023-06-10T01:18:12;14.90;99.90
64634;DHT22;51043;52.406;9.690;2023-06-10T01:20:43;14.70;99.90
64634;DHT22;51043;52.406;9.690;2023-06-10T01:23:12;14.70;99.90
64634;DHT22;51043;52.406;9.690;2023-06-10T01:25:44;14.60;99.90
64634;DHT22;51043;52.406;9.690;2023-06-10T01:28:18;14.60;99.90
64634;DHT22;51043;52.406;9.690;2023-06-10T01:30:52;14.40;99.90
64634;DHT22;51043;52.406;9.690;2023-06-10T01:33:27;14.40;99.90
64634;DHT22;51043;52.406;9.690;2023-06-10T01:36:00;14.30;99.90
64634;DHT22;51043;52.406;9.690;2023-06-10T01:38:36;14.20;99.90
64634;DHT22;51043;52.406;9.690;2023-06-10T01:41:06;14.20;99.90
64634;DHT22;51043;52.406;9.690;2023-06-10T01:43:34;14.20;99.90
64634;DHT22;51043;52.406;9.690;2023-06-10T01:46:06;14.10;99.90
64634;DHT22;51043;52.406;9.690;2023-06-10T01:48:34;14.10;99.90
64634;DHT22;51043;52.406;9.690;2023-06-10T01:51:03;14.00;99.90
64634;DHT22;51043;52.406;9.690;2023-06-10T01:53:32;14.00;99.90
64634;DHT22;51043;52.406;9.690;2023-06-10T01:56:00;13.90;99.90
64634;DHT22;51043;52.406;9.690;2023-06-10T01:58:28;13.90;99.90
64634;DHT22;51043;52.406;9.690;2023-06-10T02:01:00;13.90;99.90
64634;DHT22;51043;52.406;9.690;2023-06-10T02:03:28;13.90;99.90
64634;DHT22;51043;52.406;9.690;2023-06-10T02:06:01;13.70;99.90
64634;DHT22;51043;52.406;9.690;2023-06-10T02:08:29;13.70;99.90
64634;DHT22;51043;52.406;9.690;2023-06-10T02:11:01;13.60;99.90
64634;DHT22;51043;52.406;9.690;2023-06-10T02:13:29;13.50;99.90
64634;DHT22;51043;52.406;9.690;2023-06-10T02:16:00;13.50;99.90
64634;DHT22;51043;52.406;9.690;2023-06-10T02:18:29;13.50;99.90
64634;DHT22;51043;52.406;9.690;2023-06-10T02:20:59;13.50;99.90
64634;DHT22;51043;52.406;9.690;2023-06-10T02:23:27;13.40;99.90
64634;DHT22;51043;52.406;9.690;2023-06-10T02:25:55;13.40;99.90
64634;DHT22;51043;52.406;9.690;2023-06-10T02:28:27;13.40;99.90
64634;DHT22;51043;52.406;9.690;2023-06-10T02:31:00;13.50;99.90
64634;DHT22;51043;52.406;9.690;2023-06-10T02:33:28;13.50;99.90
64634;DHT22;51043;52.406;9.690;2023-06-10T02:36:03;13.50;99.90
64634;DHT22;51043;52.406;9.690;2023-06-10T02:38:32;13.40;99.90
64634;DHT22;51043;52.406;9.690;2023-06-10T02:41:00;13.40;99.90
64634;DHT22;51043;52.406;9.690;2023-06-10T02:43:29;13.40;99.90
64634;DHT22;51043;52.406;9.690;2023-06-10T02:46:02;13.40;99.90
64634;DHT22;51043;52.406;9.690;2023-06-10T02:48:31;13.30;99.90
64634;DHT22;51043;52.406;9.690;2023-06-10T02:50:59;13.20;99.90
64634;DHT22;51043;52.406;9.690;2023-06-10T02:53:40;13.20;99.90
64634;DHT22;51043;52.406;9.690;2023-06-10T02:56:11;13.20;99.90
64634;DHT22;51043;52.406;9.690;2023-06-10T02:58:40;13.20;99.90
64634;DHT22;51043;52.406;9.690;2023-06-10T03:01:10;13.20;99.90
64634;DHT22;51043;52.406;9.690;2023-06-10T03:04:01;13.20;99.90
64634;DHT22;51043;52.406;9.690;2023-06-10T03:06:30;13.10;99.90
64634;DHT22;51043;52.406;9.690;2023-06-10T03:09:10;13.00;99.90
64634;DHT22;51043;52.406;9.690;2023-06-10T03:11:40;12.90;99.90
64634;DHT22;51043;52.406;9.690;2023-06-10T03:14:10;12.90;99.90
64634;DHT22;51043;52.406;9.690;2023-06-10T03:16:38;12.90;99.90
64634;DHT22;51043;52.406;9.690;2023-06-10T03:19:08;12.90;99.90
64634;DHT22;51043;52.406;9.690;2023-06-10T03:21:43;12.80;99.90
64634;DHT22;51043;52.406;9.690;2023-06-10T03:24:14;12.90;99.90
64634;DHT22;51043;52.406;9.690;2023-06-10T03:26:43;12.90;99.90
64634;DHT22;51043;52.406;9.690;2023-06-10T03:29:13;13.00;99.90
64634;DHT22;51043;52.406;9.690;2023-06-10T03:31:42;13.00;99.90
64634;DHT22;51043;52.406;9.690;2023-06-10T03:34:10;12.90;99.90
64634;DHT22;51043;52.406;9.690;2023-06-10T03:36:38;12.90;99.90
64634;DHT22;51043;52.406;9.690;2023-06-10T03:39:10;12.90;99.90
64634;DHT22;51043;52.406;9.690;2023-06-10T03:41:39;12.80;99.90
64634;DHT22;51043;52.406;9.690;2023-06-10T03:44:08;12.90;99.90
64634;DHT22;51043;52.406;9.690;2023-06-10T03:46:37;12.90;99.90
64634;DHT22;51043;52.406;9.690;2023-06-10T03:49:05;12.80;99.90
64634;DHT22;51043;52.406;9.690;2023-06-10T03:51:34;12.90;99.90
64634;DHT22;51043;52.406;9.690;2023-06-10T03:54:02;12.90;99.90
64634;DHT22;51043;52.406;9.690;2023-06-10T03:56:31;12.80;99.90
64634;DHT22;51043;52.406;9.690;2023-06-10T03:58:59;12.90;99.90
64634;DHT22;51043;52.406;9.690;2023-06-10T04:01:28;12.90;99.90
64634;DHT22;51043;52.406;9.690;2023-06-10T04:04:00;13.00;99.90
64634;DHT22;51043;52.406;9.690;2023-06-10T04:06:33;13.00;99.90
64634;DHT22;51043;52.406;9.690;2023-06-10T04:09:01;13.10;99.90
64634;DHT22;51043;52.406;9.690;2023-06-10T04:11:29;13.10;99.90
64634;DHT22;51043;52.406;9.690;2023-06-10T04:13:59;13.10;99.90
64634;DHT22;51043;52.406;9.690;2023-06-10T04:16:27;13.10;99.90
64634;DHT22;51043;52.406;9.690;2023-06-10T04:18:59;13.20;99.90
64634;DHT22;51043;52.406;9.690;2023-06-10T04:21:28;13.30;99.90
64634;DHT22;51043;52.406;9.690;2023-06-10T04:23:56;13.40;99.90
64634;DHT22;51043;52.406;9.690;2023-06-10T04:26:27;13.50;99.90
64634;DHT22;51043;52.406;9.690;2023-06-10T04:28:55;13.60;99.90
64634;DHT22;51043;52.406;9.690;2023-06-10T04:31:25;13.60;99.90
64634;DHT22;51043;52.406;9.690;2023-06-10T04:33:53;13.70;99.90
64634;DHT22;51043;52.406;9.690;2023-06-10T04:36:23;13.80;99.90
64634;DHT22;51043;52.406;9.690;2023-06-10T04:38:51;13.90;99.90
64634;DHT22;51043;52.406;9.690;2023-06-10T04:41:21;13.90;99.90
64634;DHT22;51043;52.406;9.690;2023-06-10T04:43:49;14.00;99.90
64634;DHT22;51043;52.406;9.690;2023-06-10T04:46:19;14.00;99.90
64634;DHT22;51043;52.406;9.690;2023-06-10T04:48:47;14.10;99.90
64634;DHT22;51043;52.406;9.690;2023-06-10T04:51:15;14.20;99.90
64634;DHT22;51043;52.406;9.690;2023-06-10T04:53:45;14.30;99.90
64634;DHT22;51043;52.406;9.690;2023-06-10T04:56:13;14.40;99.90
64634;DHT22;51043;52.406;9.690;2023-06-10T04:58:42;14.50;99.90
64634;DHT22;51043;52.406;9.690;2023-06-10T05:01:10;14.70;99.90
64634;DHT22;51043;52.406;9.690;2023-06-10T05:03:38;14.80;99.90
64634;DHT22;51043;52.406;9.690;2023-06-10T05:06:07;14.80;99.90
64634;DHT22;51043;52.406;9.690;2023-06-10T05:08:35;14.80;99.90
64634;DHT22;51043;52.406;9.690;2023-06-10T05:11:05;14.80;99.90
64634;DHT22;51043;52.406;9.690;2023-06-10T05:13:33;14.80;99.90
64634;DHT22;51043;52.406;9.690;2023-06-10T05:16:01;14.90;99.90
64634;DHT22;51043;52.406;9.690;2023-06-10T05:18:29;15.00;99.90
64634;DHT22;51043;52.406;9.690;2023-06-10T05:20:57;14.80;99.90
64634;DHT22;51043;52.406;9.690;2023-06-10T05:23:25;14.90;99.90
64634;DHT22;51043;52.406;9.690;2023-06-10T05:25:55;15.00;99.90
64634;DHT22;51043;52.406;9.690;2023-06-10T05:28:28;15.10;99.90
64634;DHT22;51043;52.406;9.690;2023-06-10T05:30:56;15.30;99.90
64634;DHT22;51043;52.406;9.690;2023-06-10T05:33:24;15.30;99.90
64634;DHT22;51043;52.406;9.690;2023-06-10T05:35:52;15.50;99.90
64634;DHT22;51043;52.406;9.690;2023-06-10T05:38:20;15.50;99.90
64634;DHT22;51043;52.406;9.690;2023-06-10T05:40:48;15.60;99.90
64634;DHT22;51043;52.406;9.690;2023-06-10T05:43:16;15.70;99.90
64634;DHT22;51043;52.406;9.690;2023-06-10T05:45:46;15.80;99.90
64634;DHT22;51043;52.406;9.690;2023-06-10T05:48:17;15.90;99.90
64634;DHT22;51043;52.406;9.690;2023-06-10T05:50:46;16.10;99.90
64634;DHT22;51043;52.406;9.690;2023-06-10T05:53:15;16.30;99.90
64634;DHT22;51043;52.406;9.690;2023-06-10T05:55:46;16.30;99.90
64634;DHT22;51043;52.406;9.690;2023-06-10T05:58:17;16.50;99.90
64634;DHT22;51043;52.406;9.690;2023-06-10T06:00:47;16.70;99.90
64634;DHT22;51043;52.406;9.690;2023-06-10T06:03:16;16.80;99.90
64634;DHT22;51043;52.406;9.690;2023-06-10T06:05:44;17.00;99.90
64634;DHT22;51043;52.406;9.690;2023-06-10T06:08:16;17.00;99.90
64634;DHT22;51043;52.406;9.690;2023-06-10T06:10:46;17.30;99.90
64634;DHT22;51043;52.406;9.690;2023-06-10T06:13:14;17.40;99.90
64634;DHT22;51043;52.406;9.690;2023-06-10T06:15:42;17.60;99.90
64634;DHT22;51043;52.406;9.690;2023-06-10T06:18:12;17.90;99.90
64634;DHT22;51043;52.406;9.690;2023-06-10T06:20:40;17.90;99.90
64634;DHT22;51043;52.406;9.690;2023-06-10T06:23:08;18.10;99.90
64634;DHT22;51043;52.406;9.690;2023-06-10T06:25:38;18.30;99.90
64634;DHT22;51043;52.406;9.690;2023-06-10T06:28:06;18.40;99.90
64634;DHT22;51043;52.406;9.690;2023-06-10T06:30:35;18.60;99.90
64634;DHT22;51043;52.406;9.690;2023-06-10T06:33:04;18.90;99.90
64634;DHT22;51043;52.406;9.690;2023-06-10T06:35:34;19.10;99.90
64634;DHT22;51043;52.406;9.690;2023-06-10T06:38:02;19.30;99.90
64634;DHT22;51043;52.406;9.690;2023-06-10T06:40:31;19.30;99.90
64634;DHT22;51043;52.406;9.690;2023-06-10T06:42:59;19.30;99.90
64634;DHT22;51043;52.406;9.690;2023-06-10T06:45:46;19.40;99.90
64634;DHT22;51043;52.406;9.690;2023-06-10T06:48:14;19.50;99.90
64634;DHT22;51043;52.406;9.690;2023-06-10T06:50:44;19.50;99.90
64634;DHT22;51043;52.406;9.690;2023-06-10T06:53:13;19.60;99.90
64634;DHT22;51043;52.406;9.690;2023-06-10T06:55:42;19.60;99.90
64634;DHT22;51043;52.406;9.690;2023-06-10T06:58:10;19.80;99.90
64634;DHT22;51043;52.406;9.690;2023-06-10T07:00:41;19.60;99.90
64634;DHT22;51043;52.406;9.690;2023-06-10T07:03:09;19.70;99.90
64634;DHT22;51043;52.406;9.690;2023-06-10T07:05:39;19.80;99.90
64634;DHT22;51043;52.406;9.690;2023-06-10T07:08:11;20.10;99.90
64634;DHT22;51043;52.406;9.690;2023-06-10T07:10:39;20.30;99.90
64634;DHT22;51043;52.406;9.690;2023-06-10T07:13:07;20.50;99.90
64634;DHT22;51043;52.406;9.690;2023-06-10T07:15:35;20.70;99.90
64634;DHT22;51043;52.406;9.690;2023-06-10T07:18:03;20.80;99.90
64634;DHT22;51043;52.406;9.690;2023-06-10T07:20:31;20.90;99.90
64634;DHT22;51043;52.406;9.690;2023-06-10T07:22:59;21.00;99.90
64634;DHT22;51043;52.406;9.690;2023-06-10T07:25:29;21.20;99.90
64634;DHT22;51043;52.406;9.690;2023-06-10T07:27:57;21.20;99.90
64634;DHT22;51043;52.406;9.690;2023-06-10T07:30:25;21.30;99.90
64634;DHT22;51043;52.406;9.690;2023-06-10T07:32:53;21.50;99.90
64634;DHT22;51043;52.406;9.690;2023-06-10T07:35:22;21.60;99.90
64634;DHT22;51043;52.406;9.690;2023-06-10T07:37:50;21.90;99.90
64634;DHT22;51043;52.406;9.690;2023-06-10T07:40:18;22.00;99.90
64634;DHT22;51043;52.406;9.690;2023-06-10T07:42:48;22.50;99.90
64634;DHT22;51043;52.406;9.690;2023-06-10T07:45:17;23.10;99.90
64634;DHT22;51043;52.406;9.690;2023-06-10T07:47:45;24.10;99.90
64634;DHT22;51043;52.406;9.690;2023-06-10T07:50:13;25.10;99.90
64634;DHT22;51043;52.406;9.690;2023-06-10T07:52:41;25.80;99.90
64634;DHT22;51043;52.406;9.690;2023-06-10T07:55:09;26.80;99.30
64634;DHT22;51043;52.406;9.690;2023-06-10T07:57:40;27.40;95.90
64634;DHT22;51043;52.406;9.690;2023-06-10T08:00:10;27.80;92.80
64634;DHT22;51043;52.406;9.690;2023-06-10T08:02:39;28.50;89.30
64634;DHT22;51043;52.406;9.690;2023-06-10T08:05:07;28.80;84.30
64634;DHT22;51043;52.406;9.690;2023-06-10T08:07:35;28.70;83.10
64634;DHT22;51043;52.406;9.690;2023-06-10T08:10:04;28.70;81.20
64634;DHT22;51043;52.406;9.690;2023-06-10T08:12:33;29.20;82.10
64634;DHT22;51043;52.406;9.690;2023-06-10T08:15:02;30.00;76.20
64634;DHT22;51043;52.406;9.690;2023-06-10T08:17:32;30.10;74.60
64634;DHT22;51043;52.406;9.690;2023-06-10T08:20:00;30.80;69.50
64634;DHT22;51043;52.406;9.690;2023-06-10T08:22:28;31.50;68.80
64634;DHT22;51043;52.406;9.690;2023-06-10T08:24:56;31.90;64.60
64634;DHT22;51043;52.406;9.690;2023-06-10T08:27:24;32.10;61.30
64634;DHT22;51043;52.406;9.690;2023-06-10T08:29:55;32.30;62.00
64634;DHT22;51043;52.406;9.690;2023-06-10T08:32:23;32.60;60.60
64634;DHT22;51043;52.406;9.690;2023-06-10T08:34:53;32.60;57.70
64634;DHT22;51043;52.406;9.690;2023-06-10T08:37:21;32.40;57.20
64634;DHT22;51043;52.406;9.690;2023-06-10T08:39:51;33.00;57.10
64634;DHT22;51043;52.406;9.690;2023-06-10T08:42:22;32.80;56.60
64634;DHT22;51043;52.406;9.690;2023-06-10T08:44:54;32.80;56.30
64634;DHT22;51043;52.406;9.690;2023-06-10T08:47:24;33.40;54.30
64634;DHT22;51043;52.406;9.690;2023-06-10T08:49:55;34.10;54.70
64634;DHT22;51043;52.406;9.690;2023-06-10T08:52:29;34.30;52.30
64634;DHT22;51043;52.406;9.690;2023-06-10T08:55:04;35.00;51.70
64634;DHT22;51043;52.406;9.690;2023-06-10T08:57:33;34.80;50.40
64634;DHT22;51043;52.406;9.690;2023-06-10T09:00:03;35.00;49.80
64634;DHT22;51043;52.406;9.690;2023-06-10T09:02:33;35.10;49.30
64634;DHT22;51043;52.406;9.690;2023-06-10T09:05:04;35.10;49.70
64634;DHT22;51043;52.406;9.690;2023-06-10T09:07:32;34.50;48.40
64634;DHT22;51043;52.406;9.690;2023-06-10T09:10:03;35.10;47.60
64634;DHT22;51043;52.406;9.690;2023-06-10T09:12:34;35.10;48.00
64634;DHT22;51043;52.406;9.690;2023-06-10T09:15:05;36.00;45.80
64634;DHT22;51043;52.406;9.690;2023-06-10T09:17:34;36.00;44.90
64634;DHT22;51043;52.406;9.690;2023-06-10T09:20:05;36.10;45.10
64634;DHT22;51043;52.406;9.690;2023-06-10T09:22:35;36.40;44.80
64634;DHT22;51043;52.406;9.690;2023-06-10T09:25:05;36.60;42.70
64634;DHT22;51043;52.406;9.690;2023-06-10T09:27:44;36.60;43.30
64634;DHT22;51043;52.406;9.690;2023-06-10T09:30:24;36.70;43.60
64634;DHT22;51043;52.406;9.690;2023-06-10T09:32:53;37.10;42.30
64634;DHT22;51043;52.406;9.690;2023-06-10T09:35:29;37.00;40.80
64634;DHT22;51043;52.406;9.690;2023-06-10T09:37:59;37.10;41.50
64634;DHT22;51043;52.406;9.690;2023-06-10T09:40:27;37.10;40.70
64634;DHT22;51043;52.406;9.690;2023-06-10T09:42:57;36.70;41.80
64634;DHT22;51043;52.406;9.690;2023-06-10T09:45:29;37.20;41.20
64634;DHT22;51043;52.406;9.690;2023-06-10T09:47:58;37.60;39.60
64634;DHT22;51043;52.406;9.690;2023-06-10T09:50:33;38.00;40.40
64634;DHT22;51043;52.406;9.690;2023-06-10T09:53:01;37.70;40.50
64634;DHT22;51043;52.406;9.690;2023-06-10T09:55:33;37.90;40.30
64634;DHT22;51043;52.406;9.690;2023-06-10T09:58:01;38.40;39.00
64634;DHT22;51043;52.406;9.690;2023-06-10T10:00:31;38.80;38.80
64634;DHT22;51043;52.406;9.690;2023-06-10T10:03:00;37.70;38.90
64634;DHT22;51043;52.406;9.690;2023-06-10T10:05:30;38.10;39.30
64634;DHT22;51043;52.406;9.690;2023-06-10T10:07:58;38.60;38.50
64634;DHT22;51043;52.406;9.690;2023-06-10T10:10:26;38.80;37.90
64634;DHT22;51043;52.406;9.690;2023-06-10T10:12:56;38.50;37.80
64634;DHT22;51043;52.406;9.690;2023-06-10T10:15:31;38.80;38.10
64634;DHT22;51043;52.406;9.690;2023-06-10T10:18:07;38.60;37.90
64634;DHT22;51043;52.406;9.690;2023-06-10T10:20:40;38.90;38.50
64634;DHT22;51043;52.406;9.690;2023-06-10T10:23:12;39.50;37.30
64634;DHT22;51043;52.406;9.690;2023-06-10T10:25:42;38.80;37.50
64634;DHT22;51043;52.406;9.690;2023-06-10T10:28:13;38.60;36.50
64634;DHT22;51043;52.406;9.690;2023-06-10T10:30:46;38.60;36.60
64634;DHT22;51043;52.406;9.690;2023-06-10T10:33:19;38.80;37.10
64634;DHT22;51043;52.406;9.690;2023-06-10T10:35:50;38.80;36.40
64634;DHT22;51043;52.406;9.690;2023-06-10T10:38:19;38.40;35.60
64634;DHT22;51043;52.406;9.690;2023-06-10T10:40:49;38.70;36.20
64634;DHT22;51043;52.406;9.690;2023-06-10T10:43:18;38.60;36.30
64634;DHT22;51043;52.406;9.690;2023-06-10T10:45:46;38.50;37.00
64634;DHT22;51043;52.406;9.690;2023-06-10T10:48:26;38.10;37.50
64634;DHT22;51043;52.406;9.690;2023-06-10T10:50:57;37.80;37.50
64634;DHT22;51043;52.406;9.690;2023-06-10T10:53:25;38.40;37.10
64634;DHT22;51043;52.406;9.690;2023-06-10T10:56:05;39.20;37.80
64634;DHT22;51043;52.406;9.690;2023-06-10T10:58:34;39.60;37.90
64634;DHT22;51043;52.406;9.690;2023-06-10T11:01:10;39.60;36.60
64634;DHT22;51043;52.406;9.690;2023-06-10T11:03:43;39.10;36.80
64634;DHT22;51043;52.406;9.690;2023-06-10T11:06:16;38.90;38.20
64634;DHT22;51043;52.406;9.690;2023-06-10T11:08:47;39.20;40.10
64634;DHT22;51043;52.406;9.690;2023-06-10T11:11:21;40.00;38.00
64634;DHT22;51043;52.406;9.690;2023-06-10T11:14:06;40.60;37.20
64634;DHT22;51043;52.406;9.690;2023-06-10T11:16:39;40.70;36.70
64634;DHT22;51043;52.406;9.690;2023-06-10T11:19:08;40.90;35.70
64634;DHT22;51043;52.406;9.690;2023-06-10T11:22:08;40.90;36.10
64634;DHT22;51043;52.406;9.690;2023-06-10T11:24:37;40.40;35.70
64634;DHT22;51043;52.406;9.690;2023-06-10T11:27:16;40.00;36.70
64634;DHT22;51043;52.406;9.690;2023-06-10T11:29:56;40.00;38.10
64634;DHT22;51043;52.406;9.690;2023-06-10T11:32:29;40.50;37.10
64634;DHT22;51043;52.406;9.690;2023-06-10T11:34:58;41.00;36.10
64634;DHT22;51043;52.406;9.690;2023-06-10T11:37:29;40.50;36.50
64634;DHT22;51043;52.406;9.690;2023-06-10T11:39:58;40.70;36.20
64634;DHT22;51043;52.406;9.690;2023-06-10T11:42:31;40.30;36.40
64634;DHT22;51043;52.406;9.690;2023-06-10T11:44:59;40.50;36.50
64634;DHT22;51043;52.406;9.690;2023-06-10T11:47:29;40.60;36.30
64634;DHT22;51043;52.406;9.690;2023-06-10T11:49:58;40.30;36.40
64634;DHT22;51043;52.406;9.690;2023-06-10T11:52:26;40.50;37.00
64634;DHT22;51043;52.406;9.690;2023-06-10T11:54:56;40.50;37.90
64634;DHT22;51043;52.406;9.690;2023-06-10T11:57:27;41.20;35.40
64634;DHT22;51043;52.406;9.690;2023-06-10T12:00:04;41.40;34.90
64634;DHT22;51043;52.406;9.690;2023-06-10T12:02:37;41.40;36.40
64634;DHT22;51043;52.406;9.690;2023-06-10T12:05:12;40.90;36.20
64634;DHT22;51043;52.406;9.690;2023-06-10T12:07:40;41.40;36.60
64634;DHT22;51043;52.406;9.690;2023-06-10T12:10:09;41.90;35.60
64634;DHT22;51043;52.406;9.690;2023-06-10T12:12:44;42.50;35.80
64634;DHT22;51043;52.406;9.690;2023-06-10T12:15:23;43.20;35.10
64634;DHT22;51043;52.406;9.690;2023-06-10T12:17:52;43.30;33.90
64634;DHT22;51043;52.406;9.690;2023-06-10T12:20:28;43.10;33.60
64634;DHT22;51043;52.406;9.690;2023-06-10T12:22:56;43.60;34.00
64634;DHT22;51043;52.406;9.690;2023-06-10T12:25:26;43.40;33.40
64634;DHT22;51043;52.406;9.690;2023-06-10T12:27:56;43.50;33.60
64634;DHT22;51043;52.406;9.690;2023-06-10T12:30:27;42.80;33.30
64634;DHT22;51043;52.406;9.690;2023-06-10T12:32:55;42.10;33.30
64634;DHT22;51043;52.406;9.690;2023-06-10T12:35:25;41.80;34.20
64634;DHT22;51043;52.406;9.690;2023-06-10T12:37:56;42.00;34.00
64634;DHT22;51043;52.406;9.690;2023-06-10T12:40:29;42.40;34.20
64634;DHT22;51043;52.406;9.690;2023-06-10T12:42:58;42.90;34.00
64634;DHT22;51043;52.406;9.690;2023-06-10T12:45:28;43.60;32.20
64634;DHT22;51043;52.406;9.690;2023-06-10T12:48:07;43.30;32.20
64634;DHT22;51043;52.406;9.690;2023-06-10T12:50:35;43.50;32.80
64634;DHT22;51043;52.406;9.690;2023-06-10T12:53:04;43.90;32.30
64634;DHT22;51043;52.406;9.690;2023-06-10T12:55:34;43.90;32.00
64634;DHT22;51043;52.406;9.690;2023-06-10T12:58:03;43.40;30.00
64634;DHT22;51043;52.406;9.690;2023-06-10T13:00:31;43.00;32.00
64634;DHT22;51043;52.406;9.690;2023-06-10T13:03:02;42.90;32.60
64634;DHT22;51043;52.406;9.690;2023-06-10T13:05:32;43.10;31.90
64634;DHT22;51043;52.406;9.690;2023-06-10T13:08:01;43.20;31.90
64634;DHT22;51043;52.406;9.690;2023-06-10T13:10:30;43.30;32.50
64634;DHT22;51043;52.406;9.690;2023-06-10T13:12:59;42.90;33.00
64634;DHT22;51043;52.406;9.690;2023-06-10T13:15:28;43.40;32.00
64634;DHT22;51043;52.406;9.690;2023-06-10T13:17:56;43.60;30.80
64634;DHT22;51043;52.406;9.690;2023-06-10T13:20:25;43.40;31.30
64634;DHT22;51043;52.406;9.690;2023-06-10T13:22:53;43.50;31.20
64634;DHT22;51043;52.406;9.690;2023-06-10T13:25:21;43.10;31.00
64634;DHT22;51043;52.406;9.690;2023-06-10T13:27:52;42.80;32.00
64634;DHT22;51043;52.406;9.690;2023-06-10T13:30:22;43.20;30.40
64634;DHT22;51043;52.406;9.690;2023-06-10T13:32:51;43.40;30.60
64634;DHT22;51043;52.406;9.690;2023-06-10T13:35:19;43.10;31.20
64634;DHT22;51043;52.406;9.690;2023-06-10T13:37:47;42.50;31.30
64634;DHT22;51043;52.406;9.690;2023-06-10T13:40:16;42.60;31.60
64634;DHT22;51043;52.406;9.690;2023-06-10T13:42:46;42.80;31.40
64634;DHT22;51043;52.406;9.690;2023-06-10T13:45:17;42.30;30.30
64634;DHT22;51043;52.406;9.690;2023-06-10T13:47:46;41.80;30.90
64634;DHT22;51043;52.406;9.690;2023-06-10T13:50:16;41.60;31.70
64634;DHT22;51043;52.406;9.690;2023-06-10T13:52:44;41.30;32.10
64634;DHT22;51043;52.406;9.690;2023-06-10T13:55:12;41.40;31.50
64634;DHT22;51043;52.406;9.690;2023-06-10T13:57:40;41.50;32.00
64634;DHT22;51043;52.406;9.690;2023-06-10T14:00:09;41.30;32.70
64634;DHT22;51043;52.406;9.690;2023-06-10T14:02:38;41.40;32.10
64634;DHT22;51043;52.406;9.690;2023-06-10T14:05:08;41.60;32.70
64634;DHT22;51043;52.406;9.690;2023-06-10T14:07:37;41.40;31.90
64634;DHT22;51043;52.406;9.690;2023-06-10T14:10:08;41.00;30.50
64634;DHT22;51043;52.406;9.690;2023-06-10T14:12:37;40.30;30.70
64634;DHT22;51043;52.406;9.690;2023-06-10T14:15:06;39.70;32.00
64634;DHT22;51043;52.406;9.690;2023-06-10T14:17:35;39.50;33.10
64634;DHT22;51043;52.406;9.690;2023-06-10T14:20:06;39.90;31.50
64634;DHT22;51043;52.406;9.690;2023-06-10T14:22:36;40.00;31.50
64634;DHT22;51043;52.406;9.690;2023-06-10T14:25:05;40.20;30.90
64634;DHT22;51043;52.406;9.690;2023-06-10T14:27:33;39.50;31.60
64634;DHT22;51043;52.406;9.690;2023-06-10T14:30:02;39.80;32.60
64634;DHT22;51043;52.406;9.690;2023-06-10T14:32:34;40.00;32.60
64634;DHT22;51043;52.406;9.690;2023-06-10T14:35:03;39.70;33.10
64634;DHT22;51043;52.406;9.690;2023-06-10T14:37:31;40.20;33.00
64634;DHT22;51043;52.406;9.690;2023-06-10T14:40:01;40.00;31.80
64634;DHT22;51043;52.406;9.690;2023-06-10T14:42:29;40.40;31.40
64634;DHT22;51043;52.406;9.690;2023-06-10T14:44:59;40.10;30.80
64634;DHT22;51043;52.406;9.690;2023-06-10T14:47:27;39.80;31.90
64634;DHT22;51043;52.406;9.690;2023-06-10T14:49:58;39.80;32.20
64634;DHT22;51043;52.406;9.690;2023-06-10T14:52:27;39.90;32.30
64634;DHT22;51043;52.406;9.690;2023-06-10T14:54:55;40.00;32.20
64634;DHT22;51043;52.406;9.690;2023-06-10T14:57:24;39.90;31.80
64634;DHT22;51043;52.406;9.690;2023-06-10T14:59:56;39.40;32.40
64634;DHT22;51043;52.406;9.690;2023-06-10T15:02:24;39.00;32.70
64634;DHT22;51043;52.406;9.690;2023-06-10T15:04:54;39.00;33.20
64634;DHT22;51043;52.406;9.690;2023-06-10T15:07:23;38.90;33.50
64634;DHT22;51043;52.406;9.690;2023-06-10T15:09:57;37.60;33.70
64634;DHT22;51043;52.406;9.690;2023-06-10T15:12:27;35.90;36.70
64634;DHT22;51043;52.406;9.690;2023-06-10T15:14:55;34.70;38.30
64634;DHT22;51043;52.406;9.690;2023-06-10T15:17:23;33.60;40.20
64634;DHT22;51043;52.406;9.690;2023-06-10T15:19:51;32.90;41.60
64634;DHT22;51043;52.406;9.690;2023-06-10T15:22:19;32.60;41.20
64634;DHT22;51043;52.406;9.690;2023-06-10T15:24:48;31.90;42.10
64634;DHT22;51043;52.406;9.690;2023-06-10T15:27:16;31.70;43.90
64634;DHT22;51043;52.406;9.690;2023-06-10T15:29:45;31.40;44.70
64634;DHT22;51043;52.406;9.690;2023-06-10T15:32:13;31.30;45.20
64634;DHT22;51043;52.406;9.690;2023-06-10T15:34:44;31.20;44.80
64634;DHT22;51043;52.406;9.690;2023-06-10T15:37:15;31.30;45.20
64634;DHT22;51043;52.406;9.690;2023-06-10T15:39:43;31.30;44.00
64634;DHT22;51043;52.406;9.690;2023-06-10T15:42:11;31.60;43.20
64634;DHT22;51043;52.406;9.690;2023-06-10T15:44:39;32.70;41.70
64634;DHT22;51043;52.406;9.690;2023-06-10T15:47:09;34.10;40.60